Time;durP1;ratioP1;P1;durP2;ratioP2;P2;SDS_P1;SDS_P2;PMS_P1;PMS_P2;Temp;Humidity;BMP_temperature;BMP_pressure;BME280_temperature;BME280_humidity;BME280_pressure;Samples;Min_cycle;Max_cycle;Signal;HPM_P1;HPM_P2
2021/12/30 00:00:47;;;;;;;106.15;42.00;;;;;;;6.53;91.33;100334.34;5050986;28;20072;-66
2021/12/30 00:03:15;;;;;;;122.70;39.67;;;;;;;6.38;92.49;100327.16;5050114;28;20056;-66
2021/12/30 00:05:42;;;;;;;107.47;37.78;;;;;;;6.79;90.82;100331.50;5031290;28;20239;-67
2021/12/30 00:08:10;;;;;;;115.72;40.58;;;;;;;6.58;91.77;100332.38;5031145;28;20052;-66
2021/12/30 00:10:38;;;;;;;103.65;38.67;;;;;;;6.72;90.41;100337.03;5043086;28;20485;-66
2021/12/30 00:13:05;;;;;;;95.78;35.53;;;;;;;6.92;90.55;100338.75;5050023;28;20111;-66
2021/12/30 00:15:32;;;;;;;102.90;35.42;;;;;;;6.44;91.95;100329.50;5048006;28;20045;-66
2021/12/30 00:17:58;;;;;;;101.78;35.05;;;;;;;6.48;91.76;100331.06;5048622;28;20044;-66
2021/12/30 00:20:26;;;;;;;96.35;34.00;;;;;;;6.29;93.13;100336.19;5048926;28;20107;-66
2021/12/30 00:22:53;;;;;;;94.57;30.55;;;;;;;6.56;92.68;100339.41;5048852;28;20515;-66
2021/12/30 00:25:19;;;;;;;87.03;30.23;;;;;;;6.68;92.12;100343.28;5049281;28;20065;-66
2021/12/30 00:27:46;;;;;;;89.03;30.08;;;;;;;6.57;92.09;100354.16;5048791;28;20053;-66
2021/12/30 00:30:14;;;;;;;94.72;35.17;;;;;;;6.14;93.99;100352.41;5045728;28;20076;-66
2021/12/30 00:32:41;;;;;;;94.05;30.25;;;;;;;6.10;94.49;100360.41;5047226;28;20122;-67
2021/12/30 00:35:09;;;;;;;93.45;30.42;;;;;;;6.29;94.23;100353.56;5048288;28;20130;-67
2021/12/30 00:37:36;;;;;;;89.13;29.17;;;;;;;6.27;94.05;100347.59;5050377;28;20081;-67
2021/12/30 00:40:04;;;;;;;100.60;31.85;;;;;;;6.24;94.11;100358.97;5035688;28;20045;-67
2021/12/30 00:42:30;;;;;;;101.85;31.45;;;;;;;6.16;94.05;100360.19;5032153;28;20548;-67
2021/12/30 00:44:57;;;;;;;101.30;30.98;;;;;;;6.39;93.31;100354.06;5048002;28;20098;-67
2021/12/30 00:47:23;;;;;;;94.80;31.48;;;;;;;6.31;93.35;100364.78;5050272;28;20068;-67
2021/12/30 00:49:52;;;;;;;91.65;29.80;;;;;;;6.11;94.16;100364.72;5051469;28;20118;-67
2021/12/30 00:52:18;;;;;;;102.07;33.30;;;;;;;6.03;94.82;100370.22;5051080;28;20045;-67
2021/12/30 00:54:46;;;;;;;111.70;31.63;;;;;;;5.99;95.90;100372.97;5050801;28;20049;-68
2021/12/30 00:57:12;;;;;;;112.57;33.65;;;;;;;6.18;95.03;100379.19;5050176;28;20040;-68
2021/12/30 00:59:38;;;;;;;93.00;31.58;;;;;;;6.29;93.97;100379.59;5049343;28;20524;-67
2021/12/30 01:02:05;;;;;;;132.65;35.63;;;;;;;6.24;94.82;100394.56;5050206;28;20041;-67
2021/12/30 01:04:31;;;;;;;111.28;32.63;;;;;;;6.03;95.09;100390.19;5050499;28;20066;-67
2021/12/30 01:06:57;;;;;;;116.22;34.20;;;;;;;6.08;95.65;100403.88;5049995;28;20118;-67
2021/12/30 01:09:23;;;;;;;106.00;34.47;;;;;;;6.16;94.17;100400.06;5039857;28;20470;-67
2021/12/30 01:11:52;;;;;;;119.57;34.58;;;;;;;6.21;94.10;100411.13;5036699;28;20064;-67
2021/12/30 01:14:23;;;;;;;112.57;34.30;;;;;;;6.29;94.54;100416.06;5050036;28;20037;-67
2021/12/30 01:16:53;;;;;;;123.38;33.05;;;;;;;6.69;92.48;100425.72;5049989;28;20047;-67
2021/12/30 01:19:42;;;;;;;99.72;29.63;;;;;;;6.70;91.38;100428.28;5049797;28;20053;-66
2021/12/30 01:22:09;;;;;;;121.40;32.35;;;;;;;6.63;92.17;100434.66;5030157;28;20121;-66
2021/12/30 01:24:35;;;;;;;119.95;34.13;;;;;;;6.30;93.92;100425.56;5046182;28;20072;-66
2021/12/30 01:27:03;;;;;;;103.35;30.95;;;;;;;6.75;92.56;100423.72;5049927;28;20040;-66
2021/12/30 01:29:30;;;;;;;107.22;31.85;;;;;;;6.60;92.96;100418.28;5049951;28;20212;-66
2021/12/30 01:31:57;;;;;;;95.88;28.95;;;;;;;6.71;92.98;100426.53;5050014;28;20048;-66
2021/12/30 01:34:26;;;;;;;95.38;30.55;;;;;;;6.44;93.84;100425.00;5050700;28;20073;-66
2021/12/30 01:36:53;;;;;;;86.78;29.75;;;;;;;6.28;94.61;100423.00;5048802;28;20045;-66
2021/12/30 01:39:20;;;;;;;109.05;31.05;;;;;;;6.14;95.65;100425.31;5050198;28;20056;-66
2021/12/30 01:41:48;;;;;;;101.15;28.42;;;;;;;6.34;95.70;100430.59;5050038;28;20043;-66
2021/12/30 01:44:16;;;;;;;89.53;27.05;;;;;;;6.55;94.23;100425.44;5049783;28;20053;-66
2021/12/30 01:46:44;;;;;;;80.53;26.13;;;;;;;6.85;93.61;100437.22;5046967;28;20060;-66
2021/12/30 01:49:13;;;;;;;73.57;22.50;;;;;;;7.18;91.51;100435.81;5044939;28;20417;-66
2021/12/30 01:51:40;;;;;;;65.25;21.77;;;;;;;7.41;90.19;100439.19;5046544;28;20049;-66
2021/12/30 01:54:07;;;;;;;63.05;19.65;;;;;;;7.41;90.52;100444.41;5046923;28;20072;-66
2021/12/30 01:56:34;;;;;;;59.78;19.98;;;;;;;7.35;91.08;100432.50;5046612;28;20152;-66
2021/12/30 01:59:02;;;;;;;62.90;20.77;;;;;;;7.32;91.23;100440.44;5046195;28;20069;-66
2021/12/30 02:01:31;;;;;;;59.47;20.15;;;;;;;7.42;91.08;100439.13;5047449;28;20079;-66
2021/12/30 02:03:58;;;;;;;61.42;19.45;;;;;;;7.44;91.37;100436.44;5046276;28;20530;-66
2021/12/30 02:06:24;;;;;;;57.78;18.27;;;;;;;7.60;90.25;100446.16;5046704;28;20073;-66
2021/12/30 02:08:52;;;;;;;58.22;18.52;;;;;;;7.73;89.87;100449.06;5042578;28;20049;-66
2021/12/30 02:11:19;;;;;;;55.13;18.58;;;;;;;7.77;90.17;100453.22;5058486;28;20102;-66
2021/12/30 02:13:46;;;;;;;55.75;19.30;;;;;;;7.74;89.71;100454.22;5045949;28;20094;-66
2021/12/30 02:16:15;;;;;;;51.80;19.15;;;;;;;7.85;89.61;100443.28;5046306;28;20482;-66
2021/12/30 02:18:42;;;;;;;49.05;17.40;;;;;;;8.04;88.89;100456.38;5046054;28;20056;-66
2021/12/30 02:21:10;;;;;;;48.03;16.90;;;;;;;8.37;87.51;100464.44;5048432;28;20072;-66
2021/12/30 02:23:38;;;;;;;46.30;16.75;;;;;;;8.35;87.43;100461.06;5048864;28;20167;-66
2021/12/30 02:26:07;;;;;;;47.72;16.38;;;;;;;8.56;86.23;100470.50;5048485;28;20056;-66
2021/12/30 02:28:36;;;;;;;47.88;16.48;;;;;;;8.80;85.52;100469.28;5048536;28;20478;-65
2021/12/30 02:31:05;;;;;;;48.15;16.75;;;;;;;8.65;85.87;100481.34;5047214;28;20440;-65
2021/12/30 02:33:32;;;;;;;38.45;15.63;;;;;;;8.85;85.22;100482.16;5048666;28;20041;-65
2021/12/30 02:35:58;;;;;;;36.47;15.05;;;;;;;8.94;84.96;100486.94;5049048;28;20091;-65
2021/12/30 02:38:27;;;;;;;44.40;15.38;;;;;;;9.02;84.73;100498.72;5047860;28;20045;-65
2021/12/30 02:40:55;;;;;;;38.90;15.52;;;;;;;9.04;84.88;100502.09;5048806;28;20099;-65
2021/12/30 02:43:24;;;;;;;42.55;16.35;;;;;;;9.23;84.98;100494.19;5044058;28;20408;-65
2021/12/30 02:45:51;;;;;;;42.80;16.17;;;;;;;9.12;85.56;100491.28;5048954;28;20049;-65
2021/12/30 02:48:20;;;;;;;42.33;15.38;;;;;;;9.21;85.11;100483.81;5048687;28;20137;-65
2021/12/30 02:50:48;;;;;;;41.83;13.32;;;;;;;9.37;83.34;100480.41;5048821;28;20045;-65
2021/12/30 02:53:15;;;;;;;38.33;13.32;;;;;;;9.41;83.02;100495.03;5048742;28;20045;-65
2021/12/30 02:55:45;;;;;;;35.75;13.45;;;;;;;9.45;83.35;100510.50;5047637;28;20072;-65
2021/12/30 02:58:15;;;;;;;43.88;17.13;;;;;;;9.44;84.05;100511.44;5047643;28;20068;-65
2021/12/30 03:00:43;;;;;;;37.83;15.13;;;;;;;9.48;83.88;100523.44;5048057;28;20095;-65
2021/12/30 03:03:17;;;;;;;45.15;15.40;;;;;;;9.34;84.81;100517.22;5048543;28;20049;-65
2021/12/30 03:05:43;;;;;;;46.47;14.35;;;;;;;9.41;83.64;100524.69;5048736;28;20110;-65
2021/12/30 03:08:09;;;;;;;42.15;14.82;;;;;;;9.46;83.31;100529.69;5048085;28;20041;-65
2021/12/30 03:10:36;;;;;;;42.05;15.50;;;;;;;9.36;84.12;100525.81;5048238;28;20053;-65
2021/12/30 03:13:07;;;;;;;42.08;15.82;;;;;;;9.32;84.68;100532.13;5051328;28;20095;-65
2021/12/30 03:15:34;;;;;;;45.28;15.48;;;;;;;9.61;83.37;100544.59;5052507;28;20055;-65
2021/12/30 03:18:00;;;;;;;42.00;15.38;;;;;;;9.64;82.60;100542.69;5052433;28;20045;-65
2021/12/30 03:20:27;;;;;;;50.75;15.68;;;;;;;9.47;83.30;100547.91;5052463;28;20084;-65
2021/12/30 03:22:53;;;;;;;42.55;14.85;;;;;;;9.62;82.69;100539.28;5052081;28;20079;-65
2021/12/30 03:25:20;;;;;;;56.03;16.63;;;;;;;9.70;81.68;100538.91;5049893;28;20139;-65
2021/12/30 03:27:46;;;;;;;48.55;16.35;;;;;;;9.67;81.16;100539.91;5050178;28;20065;-67
2021/12/30 03:30:18;;;;;;;48.92;16.05;;;;;;;9.73;81.04;100547.44;5050019;28;20057;-66
2021/12/30 03:32:46;;;;;;;65.72;15.80;;;;;;;9.49;81.69;100555.69;5049147;28;20068;-66
2021/12/30 03:35:13;;;;;;;120.57;21.42;;;;;;;9.22;82.18;100560.50;5048045;28;20533;-66
2021/12/30 03:37:40;;;;;;;198.50;22.63;;;;;;;8.79;83.38;100559.13;5043855;28;20205;-66
2021/12/30 03:40:11;;;;;;;367.15;31.67;;;;;;;8.64;83.74;100552.00;5047573;28;20732;-66
2021/12/30 03:42:37;;;;;;;127.22;21.55;;;;;;;8.47;85.61;100564.97;5040077;28;20049;-66
2021/12/30 03:45:07;;;;;;;136.50;23.65;;;;;;;8.48;85.41;100577.97;5050226;28;20634;-66
2021/12/30 03:47:37;;;;;;;201.63;24.35;;;;;;;8.24;86.79;100586.91;5050679;28;20068;-66
2021/12/30 03:50:04;;;;;;;380.60;33.38;;;;;;;8.49;85.16;100603.22;5051072;28;20043;-65
2021/12/30 03:52:31;;;;;;;129.07;20.75;;;;;;;8.70;84.09;100603.97;5051309;28;20130;-65
2021/12/30 03:54:58;;;;;;;76.88;21.00;;;;;;;8.69;85.37;100613.59;5050810;28;20045;-65
2021/12/30 03:57:24;;;;;;;62.88;19.52;;;;;;;8.79;86.03;100622.69;5048958;28;20049;-65
2021/12/30 03:59:51;;;;;;;93.20;22.52;;;;;;;8.91;87.19;100623.03;5052063;28;20068;-65
2021/12/30 04:02:18;;;;;;;80.03;23.55;;;;;;;9.24;86.73;100624.91;5051549;28;20049;-65
2021/12/30 04:04:45;;;;;;;80.88;24.02;;;;;;;9.34;86.84;100638.41;5051717;28;20141;-65
2021/12/30 04:07:12;;;;;;;74.50;24.10;;;;;;;9.42;86.12;100638.91;5046612;28;20410;-65
2021/12/30 04:09:38;;;;;;;72.28;24.88;;;;;;;9.40;86.64;100652.97;5051036;28;20106;-65
2021/12/30 04:12:05;;;;;;;78.00;24.77;;;;;;;9.78;85.68;100662.44;5058433;28;20040;-65
2021/12/30 04:14:32;;;;;;;72.72;22.95;;;;;;;9.91;85.00;100665.25;5051312;28;20077;-65
2021/12/30 04:16:58;;;;;;;68.25;24.27;;;;;;;10.13;84.25;100676.34;5050255;28;20094;-65
2021/12/30 04:19:24;;;;;;;77.43;23.52;;;;;;;10.27;83.76;100675.72;5051110;28;20180;-66
2021/12/30 04:21:54;;;;;;;68.15;21.88;;;;;;;10.38;83.40;100684.72;5051262;28;20045;-66
2021/12/30 04:24:21;;;;;;;73.47;22.77;;;;;;;10.42;82.99;100694.09;5051338;28;20064;-66
2021/12/30 04:26:50;;;;;;;59.50;20.40;;;;;;;10.70;81.57;100707.47;5048180;28;20041;-66
2021/12/30 04:29:16;;;;;;;59.97;20.88;;;;;;;9.98;83.98;100711.19;5051058;28;20130;-66
2021/12/30 04:31:43;;;;;;;56.15;20.13;;;;;;;9.87;85.23;100701.22;5050961;28;20076;-66
2021/12/30 04:34:09;;;;;;;50.25;19.38;;;;;;;10.18;83.18;100690.97;5050668;28;20041;-66
2021/12/30 04:36:36;;;;;;;65.78;20.70;;;;;;;10.25;83.24;100692.34;5050843;28;20148;-65
2021/12/30 04:39:04;;;;;;;53.05;20.13;;;;;;;10.16;83.37;100694.59;5050486;28;20543;-65
2021/12/30 04:41:33;;;;;;;71.53;21.48;;;;;;;10.15;83.58;100706.00;5050963;28;20146;-66
2021/12/30 04:44:00;;;;;;;57.08;20.85;;;;;;;10.01;84.56;100708.44;5050784;28;20045;-65
2021/12/30 04:46:26;;;;;;;60.22;21.13;;;;;;;9.72;85.29;100713.31;5042414;28;20456;-65
2021/12/30 04:48:52;;;;;;;62.92;20.10;;;;;;;9.72;85.35;100705.44;5050943;28;20045;-65
2021/12/30 04:51:19;;;;;;;66.50;23.23;;;;;;;9.90;84.25;100700.25;5050661;28;20061;-65
2021/12/30 04:53:47;;;;;;;66.00;21.58;;;;;;;9.93;84.11;100697.47;5049886;28;20246;-65
2021/12/30 04:56:15;;;;;;;63.47;21.30;;;;;;;10.00;83.11;100683.16;5048010;28;20448;-65
2021/12/30 04:58:41;;;;;;;86.53;23.60;;;;;;;10.00;82.55;100683.16;5050095;28;20045;-65
2021/12/30 05:01:08;;;;;;;119.30;25.58;;;;;;;9.50;84.45;100686.47;5050103;28;20091;-65
2021/12/30 05:03:34;;;;;;;124.72;25.42;;;;;;;8.93;86.18;100681.38;5050371;28;20103;-65
2021/12/30 05:06:00;;;;;;;102.47;25.70;;;;;;;9.19;85.89;100675.78;5047907;28;20049;-65
2021/12/30 05:08:27;;;;;;;115.97;25.80;;;;;;;9.24;84.83;100672.00;5049009;28;20158;-65
2021/12/30 05:10:54;;;;;;;170.30;31.25;;;;;;;9.04;85.17;100664.25;5046093;28;20048;-65
2021/12/30 05:13:22;;;;;;;104.25;25.58;;;;;;;9.00;85.72;100670.56;5047364;28;20094;-65
2021/12/30 05:15:49;;;;;;;88.28;24.42;;;;;;;9.13;86.18;100673.44;5047859;28;20065;-66
2021/12/30 05:18:16;;;;;;;77.93;24.95;;;;;;;9.30;85.51;100673.50;5047864;28;20073;-66
2021/12/30 05:20:43;;;;;;;87.00;25.60;;;;;;;9.48;84.22;100667.38;5049967;28;21258;-66
2021/12/30 05:23:10;;;;;;;78.88;23.85;;;;;;;9.48;83.88;100663.91;5049690;28;20044;-66
2021/12/30 05:25:37;;;;;;;85.55;23.60;;;;;;;9.28;84.06;100667.47;5049485;28;20084;-66
2021/12/30 05:28:03;;;;;;;115.68;27.42;;;;;;;9.11;84.41;100667.44;5049100;28;20080;-66
2021/12/30 05:30:31;;;;;;;230.38;31.15;;;;;;;9.01;83.98;100658.31;5048517;28;20052;-66
2021/12/30 05:32:58;;;;;;;194.88;31.73;;;;;;;9.10;83.13;100665.72;5049033;28;20064;-66
2021/12/30 05:35:25;;;;;;;264.63;34.90;;;;;;;9.11;83.00;100667.44;5048260;28;20094;-66
2021/12/30 05:37:51;;;;;;;239.23;33.28;;;;;;;9.10;83.05;100663.13;5048916;28;20140;-66
2021/12/30 05:40:19;;;;;;;372.58;40.95;;;;;;;8.87;83.13;100664.16;5041326;28;20068;-67
2021/12/30 05:42:47;;;;;;;88.13;25.13;;;;;;;8.99;84.30;100674.06;5040457;28;20049;-66
2021/12/30 05:45:15;;;;;;;120.88;30.70;;;;;;;8.98;85.08;100672.38;5048676;28;20132;-66
2021/12/30 05:47:46;;;;;;;109.72;28.85;;;;;;;9.09;84.35;100679.75;5047075;28;20139;-66
2021/12/30 05:50:14;;;;;;;125.15;29.50;;;;;;;9.01;85.39;100679.25;5048076;28;20489;-66
2021/12/30 05:52:41;;;;;;;162.57;33.42;;;;;;;8.92;85.21;100674.44;5048271;28;20064;-66
2021/12/30 05:55:08;;;;;;;91.47;27.00;;;;;;;8.68;86.48;100679.84;5049218;28;20566;-66
2021/12/30 05:57:34;;;;;;;98.80;25.83;;;;;;;8.87;85.10;100682.47;5047538;28;20044;-66
2021/12/30 06:00:02;;;;;;;122.28;28.38;;;;;;;8.69;85.17;100681.53;5047808;28;20099;-66
2021/12/30 06:02:28;;;;;;;114.85;29.05;;;;;;;8.61;86.73;100682.81;5047289;28;20095;-66
2021/12/30 06:04:56;;;;;;;117.78;27.58;;;;;;;8.78;85.70;100685.53;5047835;28;20795;-66
2021/12/30 06:07:22;;;;;;;99.13;26.67;;;;;;;9.13;84.01;100695.22;5048114;28;20053;-66
2021/12/30 06:09:48;;;;;;;85.22;23.75;;;;;;;9.09;83.16;100698.06;5045998;28;20049;-66
2021/12/30 06:12:15;;;;;;;274.38;37.17;;;;;;;8.65;85.39;100690.44;5048084;28;20056;-66
2021/12/30 06:14:41;;;;;;;135.68;29.45;;;;;;;8.59;85.98;100695.94;5048814;28;20505;-66
2021/12/30 06:17:08;;;;;;;297.02;36.50;;;;;;;8.76;83.92;100687.34;5047988;28;20091;-66
2021/12/30 06:19:34;;;;;;;408.70;39.15;;;;;;;8.69;83.66;100693.75;5047253;28;20049;-66
2021/12/30 06:22:02;;;;;;;186.40;29.80;;;;;;;8.48;84.46;100690.34;5048936;28;20138;-66
2021/12/30 06:24:29;;;;;;;166.85;25.88;;;;;;;8.49;83.75;100694.66;5048000;28;20099;-66
2021/12/30 06:26:55;;;;;;;296.45;37.50;;;;;;;8.38;85.08;100696.03;5048193;28;20099;-66
2021/12/30 06:29:21;;;;;;;131.88;27.17;;;;;;;7.77;87.90;100681.16;5047891;28;20044;-66
2021/12/30 06:31:48;;;;;;;119.85;27.80;;;;;;;7.84;88.25;100682.59;5049044;28;20041;-66
2021/12/30 06:34:14;;;;;;;128.15;26.42;;;;;;;7.96;89.86;100693.44;5047976;28;20445;-66
2021/12/30 06:36:41;;;;;;;77.57;24.73;;;;;;;8.17;89.25;100689.91;5047411;28;20068;-66
2021/12/30 06:39:09;;;;;;;73.75;23.50;;;;;;;8.25;90.04;100695.69;5046388;28;20103;-66
2021/12/30 06:41:35;;;;;;;82.65;23.73;;;;;;;8.36;90.28;100693.47;5045214;28;20105;-66
2021/12/30 06:44:02;;;;;;;86.20;23.35;;;;;;;8.61;89.29;100696.72;5046808;28;20095;-66
2021/12/30 06:46:28;;;;;;;73.45;21.50;;;;;;;8.78;88.87;100704.69;5048463;28;20099;-66
2021/12/30 06:48:55;;;;;;;58.22;19.50;;;;;;;8.96;88.38;100709.97;5045583;28;20045;-66
2021/12/30 06:51:23;;;;;;;67.35;20.27;;;;;;;8.97;88.48;100719.53;5048774;28;20107;-66
2021/12/30 06:53:51;;;;;;;61.55;18.77;;;;;;;9.10;87.82;100736.34;5048653;28;20064;-67
2021/12/30 06:56:19;;;;;;;64.28;18.73;;;;;;;9.12;87.18;100734.53;5049151;28;20052;-66
2021/12/30 06:58:45;;;;;;;54.65;18.17;;;;;;;9.32;86.15;100739.69;5047134;28;20068;-66
2021/12/30 07:01:12;;;;;;;53.33;17.73;;;;;;;9.41;84.83;100749.72;5048438;28;20118;-66
2021/12/30 07:03:38;;;;;;;57.80;17.35;;;;;;;9.37;84.73;100750.78;5048301;28;20663;-66
2021/12/30 07:06:05;;;;;;;53.70;16.08;;;;;;;9.25;85.41;100733.03;5048522;28;20097;-66
2021/12/30 07:08:31;;;;;;;64.15;17.17;;;;;;;9.12;85.52;100745.00;5047920;28;20510;-66
2021/12/30 07:10:58;;;;;;;52.58;16.27;;;;;;;8.89;86.55;100734.72;5046957;28;20049;-66
2021/12/30 07:13:26;;;;;;;52.22;15.60;;;;;;;8.91;86.56;100748.56;5048306;28;20095;-66
2021/12/30 07:15:52;;;;;;;49.00;17.85;;;;;;;9.05;85.77;100756.66;5047435;28;20065;-66
2021/12/30 07:18:18;;;;;;;51.85;16.98;;;;;;;9.08;85.33;100753.91;5047045;28;20090;-66
2021/12/30 07:20:45;;;;;;;47.45;16.83;;;;;;;9.29;84.66;100758.16;5046216;28;20163;-66
2021/12/30 07:23:11;;;;;;;48.65;16.55;;;;;;;9.26;84.34;100771.38;5046560;28;20652;-66
2021/12/30 07:25:38;;;;;;;55.72;16.30;;;;;;;9.43;84.18;100763.59;5047704;28;20122;-66
2021/12/30 07:28:05;;;;;;;56.90;17.55;;;;;;;9.44;84.07;100765.28;5047017;28;20129;-66
2021/12/30 07:30:33;;;;;;;52.70;16.35;;;;;;;9.26;85.18;100760.91;5046853;28;20493;-66
2021/12/30 07:33:00;;;;;;;50.83;16.70;;;;;;;9.22;85.24;100747.13;5046923;28;20069;-66
2021/12/30 07:35:27;;;;;;;46.30;16.73;;;;;;;9.49;83.53;100752.84;5047343;28;20527;-66
2021/12/30 07:37:54;;;;;;;41.20;15.15;;;;;;;9.31;83.79;100751.09;5047344;28;20122;-66
2021/12/30 07:40:21;;;;;;;59.17;15.07;;;;;;;9.28;84.33;100748.59;5046418;28;20069;-66
2021/12/30 07:42:48;;;;;;;63.80;18.90;;;;;;;9.28;84.30;100744.22;5046478;28;20130;-66
2021/12/30 07:45:14;;;;;;;47.78;16.13;;;;;;;9.03;86.19;100733.19;5047297;28;20103;-66
2021/12/30 07:47:43;;;;;;;65.03;16.77;;;;;;;8.96;86.46;100738.75;5046918;28;20409;-66
2021/12/30 07:50:11;;;;;;;48.22;18.15;;;;;;;9.01;86.66;100744.63;5043247;28;20049;-66
2021/12/30 07:52:37;;;;;;;46.60;15.68;;;;;;;8.93;87.27;100746.75;5045320;28;20466;-66
2021/12/30 07:55:04;;;;;;;56.72;14.30;;;;;;;9.08;87.00;100774.81;5047315;28;20465;-66
2021/12/30 07:57:31;;;;;;;44.95;13.25;;;;;;;8.78;87.80;100759.56;5047575;28;20073;-66
2021/12/30 07:59:57;;;;;;;40.63;12.93;;;;;;;8.98;86.89;100773.53;5049599;28;20064;-66
2021/12/30 08:02:24;;;;;;;50.10;12.32;;;;;;;8.86;88.03;100776.69;5046026;28;20413;-66
2021/12/30 08:04:52;;;;;;;41.65;12.60;;;;;;;8.76;87.43;100777.06;5050533;28;20064;-66
2021/12/30 08:07:21;;;;;;;36.40;11.68;;;;;;;8.96;87.93;100777.97;5051258;28;20574;-66
2021/12/30 08:09:48;;;;;;;42.00;12.82;;;;;;;9.24;86.14;100784.50;5047595;28;20489;-66
2021/12/30 08:12:15;;;;;;;50.20;12.40;;;;;;;9.22;86.31;100796.81;5047393;28;20453;-66
2021/12/30 08:14:41;;;;;;;33.53;12.02;;;;;;;9.37;85.43;100792.66;5050071;28;20064;-66
2021/12/30 08:17:07;;;;;;;34.88;12.50;;;;;;;9.44;84.97;100794.06;5041474;28;20107;-66
2021/12/30 08:19:34;;;;;;;33.85;11.35;;;;;;;9.16;85.86;100778.78;5050707;28;20045;-66
2021/12/30 08:22:02;;;;;;;30.08;11.63;;;;;;;8.84;87.07;100768.03;5049273;28;20467;-66
2021/12/30 08:24:29;;;;;;;32.20;11.32;;;;;;;8.52;88.92;100770.31;5050505;28;20056;-66
2021/12/30 08:26:56;;;;;;;37.03;11.82;;;;;;;8.80;87.69;100747.28;5049809;28;20113;-66
2021/12/30 08:29:22;;;;;;;41.78;12.77;;;;;;;8.97;87.08;100749.16;5050371;28;20098;-66
2021/12/30 08:31:49;;;;;;;41.35;11.98;;;;;;;9.17;86.01;100759.56;5050811;28;20053;-67
2021/12/30 08:34:15;;;;;;;27.33;13.43;;;;;;;9.01;86.08;100748.09;5048873;28;20056;-66
2021/12/30 08:36:41;;;;;;;39.08;12.38;;;;;;;8.84;87.17;100757.59;5049191;28;20099;-66
2021/12/30 08:39:09;;;;;;;39.13;13.95;;;;;;;8.75;87.38;100764.09;5050424;28;20503;-66
2021/12/30 08:41:35;;;;;;;42.00;12.52;;;;;;;8.70;87.27;100758.22;5049208;28;20045;-66
2021/12/30 08:44:02;;;;;;;30.70;11.20;;;;;;;8.80;86.90;100765.56;5048848;28;20160;-66
2021/12/30 08:46:28;;;;;;;42.47;12.43;;;;;;;8.93;86.19;100758.06;5050760;28;20126;-66
2021/12/30 08:48:54;;;;;;;35.85;13.07;;;;;;;9.20;84.82;100764.63;5049909;28;20049;-66
2021/12/30 08:51:21;;;;;;;46.88;14.35;;;;;;;9.26;84.51;100768.75;5049214;28;20411;-66
2021/12/30 08:53:47;;;;;;;40.15;12.48;;;;;;;8.76;86.40;100776.22;5048393;28;20072;-66
2021/12/30 08:56:17;;;;;;;43.58;12.07;;;;;;;8.68;86.98;100773.94;5050633;28;20052;-66
2021/12/30 08:58:44;;;;;;;37.80;10.27;;;;;;;8.73;87.03;100778.97;5047869;28;20049;-66
2021/12/30 09:01:10;;;;;;;31.73;11.15;;;;;;;8.46;87.42;100788.03;5049343;28;20098;-66
2021/12/30 09:03:37;;;;;;;26.13;11.10;;;;;;;8.39;87.96;100781.34;5049170;28;20421;-66
2021/12/30 09:06:05;;;;;;;36.28;11.48;;;;;;;8.62;87.57;100779.44;5049033;28;20052;-66
2021/12/30 09:08:32;;;;;;;30.80;11.20;;;;;;;8.46;88.18;100785.41;5047434;28;20056;-66
2021/12/30 09:10:58;;;;;;;38.10;13.75;;;;;;;8.77;87.30;100788.38;5041073;28;20489;-66
2021/12/30 09:13:26;;;;;;;44.88;13.50;;;;;;;8.75;86.53;100783.25;5049419;28;20049;-66
2021/12/30 09:15:52;;;;;;;32.53;12.82;;;;;;;8.87;86.72;100776.59;5049078;28;20123;-66
2021/12/30 09:18:19;;;;;;;41.60;12.75;;;;;;;9.02;86.20;100769.84;5047043;28;20513;-66
2021/12/30 09:20:45;;;;;;;36.25;15.43;;;;;;;9.43;84.37;100778.44;5043535;28;20053;-65
2021/12/30 09:23:14;;;;;;;35.25;12.85;;;;;;;9.29;84.86;100773.84;5047395;28;20072;-65
2021/12/30 09:25:41;;;;;;;36.08;15.00;;;;;;;9.62;84.12;100779.28;5047772;28;20065;-65
2021/12/30 09:28:11;;;;;;;36.95;15.15;;;;;;;9.35;83.84;100783.19;5036272;28;20076;-65
2021/12/30 09:30:40;;;;;;;44.75;13.18;;;;;;;9.10;85.56;100786.91;5048951;28;20045;-65
2021/12/30 09:33:08;;;;;;;41.20;14.88;;;;;;;9.33;85.78;100785.00;5048860;28;20137;-65
2021/12/30 09:35:35;;;;;;;36.67;14.05;;;;;;;9.18;85.55;100787.41;5048319;28;20133;-65
2021/12/30 09:38:01;;;;;;;47.63;14.98;;;;;;;9.18;85.53;100786.56;5048931;28;20064;-65
2021/12/30 09:40:28;;;;;;;31.73;13.75;;;;;;;9.38;84.95;100785.66;5047163;28;20069;-65
2021/12/30 09:43:01;;;;;;;41.00;13.73;;;;;;;9.49;84.49;100786.88;5048325;28;20436;-66
2021/12/30 09:45:28;;;;;;;51.22;13.43;;;;;;;9.73;84.06;100788.31;5049113;28;20446;-66
2021/12/30 09:47:58;;;;;;;51.72;16.15;;;;;;;9.78;82.71;100783.72;5049098;28;20078;-66
2021/12/30 09:50:27;;;;;;;42.10;14.75;;;;;;;9.46;84.84;100773.91;5048097;28;20110;-66
2021/12/30 09:52:55;;;;;;;43.80;14.73;;;;;;;9.73;84.51;100779.63;5042641;28;20578;-66
2021/12/30 09:55:21;;;;;;;43.38;14.63;;;;;;;10.02;83.63;100778.22;5060286;28;20409;-66
2021/12/30 09:57:48;;;;;;;44.25;14.63;;;;;;;9.96;83.26;100786.38;5048318;28;20505;-66
2021/12/30 10:00:15;;;;;;;38.67;15.32;;;;;;;9.82;83.50;100794.06;5046724;28;20113;-66
2021/12/30 10:02:43;;;;;;;44.22;14.32;;;;;;;9.83;83.94;100798.38;5047140;28;20045;-66
2021/12/30 10:05:14;;;;;;;47.63;15.77;;;;;;;9.92;84.03;100793.53;5044611;28;20045;-66
2021/12/30 10:07:41;;;;;;;40.92;16.23;;;;;;;10.15;83.34;100789.84;5048206;28;20572;-66
2021/12/30 10:10:26;;;;;;;40.90;15.43;;;;;;;9.75;84.76;100790.88;5049318;28;20291;-66
2021/12/30 10:12:53;;;;;;;43.00;16.63;;;;;;;9.66;85.80;100797.41;5040917;28;20520;-66
2021/12/30 10:15:24;;;;;;;48.55;16.02;;;;;;;9.82;84.92;100796.69;5048666;28;20103;-66
2021/12/30 10:17:54;;;;;;;53.45;16.35;;;;;;;9.83;85.12;100788.72;5028719;28;20038;-66
2021/12/30 10:20:25;;;;;;;48.33;18.33;;;;;;;9.89;85.15;100798.06;5029311;28;20421;-66
2021/12/30 10:22:52;;;;;;;58.50;17.92;;;;;;;10.25;83.74;100791.06;5029351;28;20445;-66
2021/12/30 10:25:31;;;;;;;48.83;17.23;;;;;;;10.12;84.01;100790.81;5048780;28;20179;-66
2021/12/30 10:28:18;;;;;;;50.55;16.83;;;;;;;10.30;83.98;100777.75;5048558;28;20072;-65
2021/12/30 10:30:44;;;;;;;53.03;17.30;;;;;;;10.24;83.75;100778.88;5040376;28;20045;-66
2021/12/30 10:33:12;;;;;;;46.05;16.70;;;;;;;10.27;83.37;100776.16;5048316;28;20094;-66
2021/12/30 10:35:40;;;;;;;55.50;18.10;;;;;;;10.03;84.03;100778.16;5047559;28;20515;-66
2021/12/30 10:38:10;;;;;;;53.30;18.42;;;;;;;9.97;84.93;100788.94;5047571;28;20037;-65
2021/12/30 10:40:39;;;;;;;54.10;19.27;;;;;;;10.17;84.47;100783.59;5048806;28;20212;-65
2021/12/30 10:43:29;;;;;;;47.70;18.65;;;;;;;10.33;83.81;100782.84;5030668;28;20045;-65
2021/12/30 10:46:11;;;;;;;47.05;18.02;;;;;;;10.63;83.05;100769.03;5046445;28;20057;-65
2021/12/30 10:48:53;;;;;;;63.22;18.45;;;;;;;10.32;84.31;100781.97;5047464;28;20099;-65
2021/12/30 10:51:23;;;;;;;49.13;17.50;;;;;;;10.43;84.18;100773.56;5047312;28;20068;-65
2021/12/30 10:53:51;;;;;;;44.22;16.17;;;;;;;10.56;82.93;100774.66;5047349;28;20111;-65
2021/12/30 10:56:20;;;;;;;54.03;21.85;;;;;;;10.34;84.17;100772.28;5048074;28;20595;-65
2021/12/30 10:58:46;;;;;;;47.78;18.73;;;;;;;10.54;83.64;100766.88;5047177;28;20191;-65
2021/12/30 11:01:15;;;;;;;49.28;15.90;;;;;;;10.58;84.05;100762.31;5047843;28;20134;-65
2021/12/30 11:03:42;;;;;;;48.85;16.52;;;;;;;10.45;84.46;100775.22;5041061;28;20067;-65
2021/12/30 11:06:13;;;;;;;43.47;16.52;;;;;;;10.61;84.75;100768.25;5048393;28;20507;-66
2021/12/30 11:08:42;;;;;;;40.33;16.50;;;;;;;10.83;83.94;100765.34;5047569;28;20076;-67
2021/12/30 11:11:24;;;;;;;51.08;19.65;;;;;;;10.98;82.82;100761.09;5048037;28;20065;-67
2021/12/30 11:13:59;;;;;;;60.75;23.80;;;;;;;10.98;83.17;100751.44;5047446;28;20091;-67
2021/12/30 11:16:25;;;;;;;56.88;24.98;;;;;;;11.02;83.06;100754.75;5048180;28;20099;-67